sensor_id;sensor_type;location;lat;lon;timestamp;temperature;humidity
64111;DHT22;50401;48.188;11.566;2023-07-08T00:00:13;21.28;50.85
64111;DHT22;50401;48.188;11.566;2023-07-08T00:02:40;21.34;50.63
64111;DHT22;50401;48.188;11.566;2023-07-08T00:05:06;21.36;50.56
64111;DHT22;50401;48.188;11.566;2023-07-08T00:07:32;21.19;50.77
64111;DHT22;50401;48.188;11.566;2023-07-08T00:09:58;20.79;51.85
64111;DHT22;50401;48.188;11.566;2023-07-08T00:12:23;20.63;52.18
64111;DHT22;50401;48.188;11.566;2023-07-08T00:14:48;20.69;52.16
64111;DHT22;50401;48.188;11.566;2023-07-08T00:17:14;20.76;52.12
64111;DHT22;50401;48.188;11.566;2023-07-08T00:19:40;20.91;51.72
64111;DHT22;50401;48.188;11.566;2023-07-08T00:22:11;21.04;51.43
64111;DHT22;50401;48.188;11.566;2023-07-08T00:24:38;21.11;51.06
64111;DHT22;50401;48.188;11.566;2023-07-08T00:27:03;20.95;51.61
64111;DHT22;50401;48.188;11.566;2023-07-08T00:29:29;20.46;52.75
64111;DHT22;50401;48.188;11.566;2023-07-08T00:31:54;20.38;53.10
64111;DHT22;50401;48.188;11.566;2023-07-08T00:34:19;20.36;53.13
64111;DHT22;50401;48.188;11.566;2023-07-08T00:36:45;20.50;52.85
64111;DHT22;50401;48.188;11.566;2023-07-08T00:39:13;20.42;53.13
64111;DHT22;50401;48.188;11.566;2023-07-08T00:41:40;20.32;53.29
64111;DHT22;50401;48.188;11.566;2023-07-08T00:44:10;20.10;53.97
64111;DHT22;50401;48.188;11.566;2023-07-08T00:46:57;20.15;53.91
64111;DHT22;50401;48.188;11.566;2023-07-08T00:49:26;20.17;53.98
64111;DHT22;50401;48.188;11.566;2023-07-08T00:51:53;20.32;53.62
64111;DHT22;50401;48.188;11.566;2023-07-08T00:54:19;20.48;53.29
64111;DHT22;50401;48.188;11.566;2023-07-08T00:56:58;20.38;53.36
64111;DHT22;50401;48.188;11.566;2023-07-08T00:59:38;20.08;53.92
64111;DHT22;50401;48.188;11.566;2023-07-08T01:02:09;19.94;54.32
64111;DHT22;50401;48.188;11.566;2023-07-08T01:04:54;19.87;54.68
64111;DHT22;50401;48.188;11.566;2023-07-08T01:07:22;19.73;55.05
64111;DHT22;50401;48.188;11.566;2023-07-08T01:09:56;19.76;55.13
64111;DHT22;50401;48.188;11.566;2023-07-08T01:12:27;19.79;55.14
64111;DHT22;50401;48.188;11.566;2023-07-08T01:14:53;19.91;54.98
64111;DHT22;50401;48.188;11.566;2023-07-08T01:17:23;20.17;54.40
64111;DHT22;50401;48.188;11.566;2023-07-08T01:19:48;20.25;53.99
64111;DHT22;50401;48.188;11.566;2023-07-08T01:22:14;20.08;54.63
64111;DHT22;50401;48.188;11.566;2023-07-08T01:24:42;20.04;54.69
64111;DHT22;50401;48.188;11.566;2023-07-08T01:27:12;19.90;55.16
64111;DHT22;50401;48.188;11.566;2023-07-08T01:29:38;20.00;55.04
64111;DHT22;50401;48.188;11.566;2023-07-08T01:32:04;20.07;54.90
64111;DHT22;50401;48.188;11.566;2023-07-08T01:34:34;20.20;54.58
64111;DHT22;50401;48.188;11.566;2023-07-08T01:37:04;20.32;54.26
64111;DHT22;50401;48.188;11.566;2023-07-08T01:39:31;20.45;53.92
64111;DHT22;50401;48.188;11.566;2023-07-08T01:41:57;20.49;53.77
64111;DHT22;50401;48.188;11.566;2023-07-08T01:44:35;20.67;53.50
64111;DHT22;50401;48.188;11.566;2023-07-08T01:47:16;20.67;53.46
64111;DHT22;50401;48.188;11.566;2023-07-08T01:49:43;20.79;53.83
64111;DHT22;50401;48.188;11.566;2023-07-08T01:52:11;20.80;54.11
64111;DHT22;50401;48.188;11.566;2023-07-08T01:54:37;20.79;54.16
64111;DHT22;50401;48.188;11.566;2023-07-08T01:57:03;20.84;53.62
64111;DHT22;50401;48.188;11.566;2023-07-08T01:59:29;20.83;53.71
64111;DHT22;50401;48.188;11.566;2023-07-08T02:01:54;20.79;53.79
64111;DHT22;50401;48.188;11.566;2023-07-08T02:04:23;20.81;53.79
64111;DHT22;50401;48.188;11.566;2023-07-08T02:06:54;20.77;54.05
64111;DHT22;50401;48.188;11.566;2023-07-08T02:09:20;20.48;54.95
64111;DHT22;50401;48.188;11.566;2023-07-08T02:11:46;20.38;55.23
64111;DHT22;50401;48.188;11.566;2023-07-08T02:14:11;20.03;55.96
64111;DHT22;50401;48.188;11.566;2023-07-08T02:16:36;19.80;56.95
64111;DHT22;50401;48.188;11.566;2023-07-08T02:19:02;19.67;57.09
64111;DHT22;50401;48.188;11.566;2023-07-08T02:21:27;19.56;57.56
64111;DHT22;50401;48.188;11.566;2023-07-08T02:23:56;19.51;57.79
64111;DHT22;50401;48.188;11.566;2023-07-08T02:26:21;19.66;57.33
64111;DHT22;50401;48.188;11.566;2023-07-08T02:28:47;19.55;57.01
64111;DHT22;50401;48.188;11.566;2023-07-08T02:31:12;19.69;56.64
64111;DHT22;50401;48.188;11.566;2023-07-08T02:33:37;19.41;57.51
64111;DHT22;50401;48.188;11.566;2023-07-08T02:36:03;19.56;57.09
64111;DHT22;50401;48.188;11.566;2023-07-08T02:38:28;19.61;57.29
64111;DHT22;50401;48.188;11.566;2023-07-08T02:40:54;19.55;57.39
64111;DHT22;50401;48.188;11.566;2023-07-08T02:43:19;19.76;57.07
64111;DHT22;50401;48.188;11.566;2023-07-08T02:45:45;19.93;57.28
64111;DHT22;50401;48.188;11.566;2023-07-08T02:48:13;20.00;57.34
64111;DHT22;50401;48.188;11.566;2023-07-08T02:50:39;20.04;57.29
64111;DHT22;50401;48.188;11.566;2023-07-08T02:53:04;20.13;56.92
64111;DHT22;50401;48.188;11.566;2023-07-08T02:55:29;20.20;57.01
64111;DHT22;50401;48.188;11.566;2023-07-08T02:57:56;19.80;57.90
64111;DHT22;50401;48.188;11.566;2023-07-08T03:00:21;19.55;58.69
64111;DHT22;50401;48.188;11.566;2023-07-08T03:02:46;19.31;59.31
64111;DHT22;50401;48.188;11.566;2023-07-08T03:05:12;19.13;60.05
64111;DHT22;50401;48.188;11.566;2023-07-08T03:07:37;18.87;60.77
64111;DHT22;50401;48.188;11.566;2023-07-08T03:10:03;18.82;60.86
64111;DHT22;50401;48.188;11.566;2023-07-08T03:12:29;18.68;61.21
64111;DHT22;50401;48.188;11.566;2023-07-08T03:14:54;18.55;61.76
64111;DHT22;50401;48.188;11.566;2023-07-08T03:17:19;18.33;62.44
64111;DHT22;50401;48.188;11.566;2023-07-08T03:19:45;18.36;62.67
64111;DHT22;50401;48.188;11.566;2023-07-08T03:22:10;18.49;62.49
64111;DHT22;50401;48.188;11.566;2023-07-08T03:24:36;18.33;62.95
64111;DHT22;50401;48.188;11.566;2023-07-08T03:27:01;18.48;62.55
64111;DHT22;50401;48.188;11.566;2023-07-08T03:29:30;18.49;62.71
64111;DHT22;50401;48.188;11.566;2023-07-08T03:31:56;18.55;62.81
64111;DHT22;50401;48.188;11.566;2023-07-08T03:34:21;18.83;62.20
64111;DHT22;50401;48.188;11.566;2023-07-08T03:36:49;18.93;61.99
64111;DHT22;50401;48.188;11.566;2023-07-08T03:39:22;18.90;62.13
64111;DHT22;50401;48.188;11.566;2023-07-08T03:41:50;18.68;62.91
64111;DHT22;50401;48.188;11.566;2023-07-08T03:44:15;18.68;62.90
64111;DHT22;50401;48.188;11.566;2023-07-08T03:46:43;18.52;63.26
64111;DHT22;50401;48.188;11.566;2023-07-08T03:49:10;18.65;62.94
64111;DHT22;50401;48.188;11.566;2023-07-08T03:51:37;18.47;63.41
64111;DHT22;50401;48.188;11.566;2023-07-08T03:54:04;18.58;63.50
64111;DHT22;50401;48.188;11.566;2023-07-08T03:56:30;18.85;63.04
64111;DHT22;50401;48.188;11.566;2023-07-08T03:58:56;19.15;62.41
64111;DHT22;50401;48.188;11.566;2023-07-08T04:01:23;19.42;62.20
64111;DHT22;50401;48.188;11.566;2023-07-08T04:03:51;19.59;61.92
64111;DHT22;50401;48.188;11.566;2023-07-08T04:06:16;19.44;62.58
64111;DHT22;50401;48.188;11.566;2023-07-08T04:08:42;19.14;63.70
64111;DHT22;50401;48.188;11.566;2023-07-08T04:11:11;19.04;64.13
64111;DHT22;50401;48.188;11.566;2023-07-08T04:13:37;19.08;64.16
64111;DHT22;50401;48.188;11.566;2023-07-08T04:16:04;19.28;63.51
64111;DHT22;50401;48.188;11.566;2023-07-08T04:18:30;19.32;63.43
64111;DHT22;50401;48.188;11.566;2023-07-08T04:20:56;19.49;62.73
64111;DHT22;50401;48.188;11.566;2023-07-08T04:23:22;19.70;62.44
64111;DHT22;50401;48.188;11.566;2023-07-08T04:25:49;19.73;61.95
64111;DHT22;50401;48.188;11.566;2023-07-08T04:28:15;19.41;62.46
64111;DHT22;50401;48.188;11.566;2023-07-08T04:30:41;19.59;61.96
64111;DHT22;50401;48.188;11.566;2023-07-08T04:33:08;19.66;61.48
64111;DHT22;50401;48.188;11.566;2023-07-08T04:35:34;19.20;62.50
64111;DHT22;50401;48.188;11.566;2023-07-08T04:38:03;19.22;62.33
64111;DHT22;50401;48.188;11.566;2023-07-08T04:40:35;19.35;61.79
64111;DHT22;50401;48.188;11.566;2023-07-08T04:43:02;19.61;61.34
64111;DHT22;50401;48.188;11.566;2023-07-08T04:45:28;19.74;60.65
64111;DHT22;50401;48.188;11.566;2023-07-08T04:47:53;19.87;60.24
64111;DHT22;50401;48.188;11.566;2023-07-08T04:50:19;20.04;59.85
64111;DHT22;50401;48.188;11.566;2023-07-08T04:52:44;20.21;59.34
64111;DHT22;50401;48.188;11.566;2023-07-08T04:55:11;20.35;59.17
64111;DHT22;50401;48.188;11.566;2023-07-08T04:57:36;20.45;58.66
64111;DHT22;50401;48.188;11.566;2023-07-08T05:00:03;20.50;58.57
64111;DHT22;50401;48.188;11.566;2023-07-08T05:02:28;20.55;58.15
64111;DHT22;50401;48.188;11.566;2023-07-08T05:04:54;20.65;57.69
64111;DHT22;50401;48.188;11.566;2023-07-08T05:07:19;20.56;57.69
64111;DHT22;50401;48.188;11.566;2023-07-08T05:09:45;20.66;57.87
64111;DHT22;50401;48.188;11.566;2023-07-08T05:12:10;20.76;57.77
64111;DHT22;50401;48.188;11.566;2023-07-08T05:14:35;20.85;57.41
64111;DHT22;50401;48.188;11.566;2023-07-08T05:17:01;20.90;57.45
64111;DHT22;50401;48.188;11.566;2023-07-08T05:19:26;20.98;57.47
64111;DHT22;50401;48.188;11.566;2023-07-08T05:21:52;21.11;59.04
64111;DHT22;50401;48.188;11.566;2023-07-08T05:24:18;21.19;59.03
64111;DHT22;50401;48.188;11.566;2023-07-08T05:26:44;21.25;58.88
64111;DHT22;50401;48.188;11.566;2023-07-08T05:29:09;21.35;58.52
64111;DHT22;50401;48.188;11.566;2023-07-08T05:31:34;21.36;58.70
64111;DHT22;50401;48.188;11.566;2023-07-08T05:34:00;21.45;58.43
64111;DHT22;50401;48.188;11.566;2023-07-08T05:36:25;21.59;58.28
64111;DHT22;50401;48.188;11.566;2023-07-08T05:38:51;21.67;58.00
64111;DHT22;50401;48.188;11.566;2023-07-08T05:41:16;21.71;57.37
64111;DHT22;50401;48.188;11.566;2023-07-08T05:43:41;21.88;57.18
64111;DHT22;50401;48.188;11.566;2023-07-08T05:46:07;22.06;56.50
64111;DHT22;50401;48.188;11.566;2023-07-08T05:48:33;22.33;55.58
64111;DHT22;50401;48.188;11.566;2023-07-08T05:50:58;22.77;54.32
64111;DHT22;50401;48.188;11.566;2023-07-08T05:53:24;23.79;51.92
64111;DHT22;50401;48.188;11.566;2023-07-08T05:55:50;24.40;50.03
64111;DHT22;50401;48.188;11.566;2023-07-08T05:58:15;24.89;49.30
64111;DHT22;50401;48.188;11.566;2023-07-08T06:00:42;25.48;48.42
64111;DHT22;50401;48.188;11.566;2023-07-08T06:03:08;25.55;47.71
64111;DHT22;50401;48.188;11.566;2023-07-08T06:05:33;25.81;47.23
64111;DHT22;50401;48.188;11.566;2023-07-08T06:07:59;25.92;47.12
64111;DHT22;50401;48.188;11.566;2023-07-08T06:10:24;25.02;48.10
64111;DHT22;50401;48.188;11.566;2023-07-08T06:12:50;24.24;50.24
64111;DHT22;50401;48.188;11.566;2023-07-08T06:15:16;24.17;50.10
64111;DHT22;50401;48.188;11.566;2023-07-08T06:17:41;24.24;50.22
64111;DHT22;50401;48.188;11.566;2023-07-08T06:20:07;24.79;49.09
64111;DHT22;50401;48.188;11.566;2023-07-08T06:22:33;25.61;47.53
64111;DHT22;50401;48.188;11.566;2023-07-08T06:24:58;26.92;45.13
64111;DHT22;50401;48.188;11.566;2023-07-08T06:27:23;28.22;42.31
64111;DHT22;50401;48.188;11.566;2023-07-08T06:29:50;26.95;44.04
64111;DHT22;50401;48.188;11.566;2023-07-08T06:32:15;28.11;42.59
64111;DHT22;50401;48.188;11.566;2023-07-08T06:34:41;27.93;43.15
64111;DHT22;50401;48.188;11.566;2023-07-08T06:37:06;27.33;44.20
64111;DHT22;50401;48.188;11.566;2023-07-08T06:39:31;27.30;44.06
64111;DHT22;50401;48.188;11.566;2023-07-08T06:41:57;27.72;43.14
64111;DHT22;50401;48.188;11.566;2023-07-08T06:44:22;28.13;42.31
64111;DHT22;50401;48.188;11.566;2023-07-08T06:46:47;28.07;42.63
64111;DHT22;50401;48.188;11.566;2023-07-08T06:49:13;27.52;43.32
64111;DHT22;50401;48.188;11.566;2023-07-08T06:51:38;26.49;44.98
64111;DHT22;50401;48.188;11.566;2023-07-08T06:54:04;26.48;45.64
64111;DHT22;50401;48.188;11.566;2023-07-08T06:56:40;26.12;45.88
64111;DHT22;50401;48.188;11.566;2023-07-08T06:59:07;23.91;51.29
64111;DHT22;50401;48.188;11.566;2023-07-08T07:01:32;23.79;51.65
64111;DHT22;50401;48.188;11.566;2023-07-08T07:03:58;24.02;51.19
64111;DHT22;50401;48.188;11.566;2023-07-08T07:06:24;23.19;53.11
64111;DHT22;50401;48.188;11.566;2023-07-08T07:08:50;23.95;51.81
64111;DHT22;50401;48.188;11.566;2023-07-08T07:11:15;23.71;52.26
64111;DHT22;50401;48.188;11.566;2023-07-08T07:13:40;23.88;52.25
64111;DHT22;50401;48.188;11.566;2023-07-08T07:16:06;24.65;50.95
64111;DHT22;50401;48.188;11.566;2023-07-08T07:18:31;24.82;50.33
64111;DHT22;50401;48.188;11.566;2023-07-08T07:20:58;25.93;48.06
64111;DHT22;50401;48.188;11.566;2023-07-08T07:23:24;25.97;48.03
64111;DHT22;50401;48.188;11.566;2023-07-08T07:25:50;25.90;48.20
64111;DHT22;50401;48.188;11.566;2023-07-08T07:28:16;26.20;47.78
64111;DHT22;50401;48.188;11.566;2023-07-08T07:30:43;26.76;46.26
64111;DHT22;50401;48.188;11.566;2023-07-08T07:33:09;27.21;45.36
64111;DHT22;50401;48.188;11.566;2023-07-08T07:35:34;27.54;44.47
64111;DHT22;50401;48.188;11.566;2023-07-08T07:38:00;27.67;44.86
64111;DHT22;50401;48.188;11.566;2023-07-08T07:40:25;27.33;45.50
64111;DHT22;50401;48.188;11.566;2023-07-08T07:42:51;27.08;45.35
64111;DHT22;50401;48.188;11.566;2023-07-08T07:45:16;26.67;46.29
64111;DHT22;50401;48.188;11.566;2023-07-08T07:47:41;26.72;46.23
64111;DHT22;50401;48.188;11.566;2023-07-08T07:50:08;26.65;46.24
64111;DHT22;50401;48.188;11.566;2023-07-08T07:52:34;26.86;45.61
64111;DHT22;50401;48.188;11.566;2023-07-08T07:55:01;26.95;45.67
64111;DHT22;50401;48.188;11.566;2023-07-08T07:57:26;26.71;46.40
64111;DHT22;50401;48.188;11.566;2023-07-08T07:59:52;27.13;45.82
64111;DHT22;50401;48.188;11.566;2023-07-08T08:02:18;27.73;44.69
64111;DHT22;50401;48.188;11.566;2023-07-08T08:04:44;27.44;45.33
64111;DHT22;50401;48.188;11.566;2023-07-08T08:07:09;27.93;44.82
64111;DHT22;50401;48.188;11.566;2023-07-08T08:09:35;28.14;44.75
64111;DHT22;50401;48.188;11.566;2023-07-08T08:12:02;27.90;44.58
64111;DHT22;50401;48.188;11.566;2023-07-08T08:14:27;27.38;45.91
64111;DHT22;50401;48.188;11.566;2023-07-08T08:16:53;27.44;45.97
64111;DHT22;50401;48.188;11.566;2023-07-08T08:19:18;27.39;46.03
64111;DHT22;50401;48.188;11.566;2023-07-08T08:21:44;27.41;46.09
64111;DHT22;50401;48.188;11.566;2023-07-08T08:24:09;27.06;46.76
64111;DHT22;50401;48.188;11.566;2023-07-08T08:26:35;27.02;47.07
64111;DHT22;50401;48.188;11.566;2023-07-08T08:29:02;26.96;47.65
64111;DHT22;50401;48.188;11.566;2023-07-08T08:31:27;26.90;47.17
64111;DHT22;50401;48.188;11.566;2023-07-08T08:33:53;27.63;46.28
64111;DHT22;50401;48.188;11.566;2023-07-08T08:36:19;27.88;45.99
64111;DHT22;50401;48.188;11.566;2023-07-08T08:38:46;27.85;46.13
64111;DHT22;50401;48.188;11.566;2023-07-08T08:41:17;27.52;46.61
64111;DHT22;50401;48.188;11.566;2023-07-08T08:43:43;27.15;47.53
64111;DHT22;50401;48.188;11.566;2023-07-08T08:48:58;27.45;46.72
64111;DHT22;50401;48.188;11.566;2023-07-08T08:51:27;27.44;46.54
64111;DHT22;50401;48.188;11.566;2023-07-08T08:53:56;27.76;46.40
64111;DHT22;50401;48.188;11.566;2023-07-08T08:56:36;27.74;46.49
64111;DHT22;50401;48.188;11.566;2023-07-08T09:01:42;27.11;46.72
64111;DHT22;50401;48.188;11.566;2023-07-08T09:04:13;27.07;46.92
64111;DHT22;50401;48.188;11.566;2023-07-08T09:06:41;27.08;46.36
64111;DHT22;50401;48.188;11.566;2023-07-08T09:09:32;26.87;46.89
64111;DHT22;50401;48.188;11.566;2023-07-08T09:12:05;26.93;47.32
64111;DHT22;50401;48.188;11.566;2023-07-08T09:14:34;26.93;47.08
64111;DHT22;50401;48.188;11.566;2023-07-08T09:17:28;26.80;47.70
64111;DHT22;50401;48.188;11.566;2023-07-08T09:20:20;27.03;47.25
64111;DHT22;50401;48.188;11.566;2023-07-08T09:25:34;27.65;46.08
64111;DHT22;50401;48.188;11.566;2023-07-08T09:28:01;27.82;45.29
64111;DHT22;50401;48.188;11.566;2023-07-08T09:30:27;27.56;46.05
64111;DHT22;50401;48.188;11.566;2023-07-08T09:32:57;27.58;46.54
64111;DHT22;50401;48.188;11.566;2023-07-08T09:35:25;27.63;46.70
64111;DHT22;50401;48.188;11.566;2023-07-08T09:37:52;27.97;45.67
64111;DHT22;50401;48.188;11.566;2023-07-08T09:40:22;28.22;45.06
64111;DHT22;50401;48.188;11.566;2023-07-08T09:42:54;28.03;45.74
64111;DHT22;50401;48.188;11.566;2023-07-08T09:45:22;27.85;46.03
64111;DHT22;50401;48.188;11.566;2023-07-08T09:47:52;27.74;46.12
64111;DHT22;50401;48.188;11.566;2023-07-08T09:50:23;27.62;46.42
64111;DHT22;50401;48.188;11.566;2023-07-08T09:52:51;27.41;46.76
64111;DHT22;50401;48.188;11.566;2023-07-08T09:55:16;27.48;45.92
64111;DHT22;50401;48.188;11.566;2023-07-08T09:57:44;27.58;45.93
64111;DHT22;50401;48.188;11.566;2023-07-08T10:00:16;27.63;45.92
64111;DHT22;50401;48.188;11.566;2023-07-08T10:02:46;27.70;45.93
64111;DHT22;50401;48.188;11.566;2023-07-08T10:07:52;28.40;44.94
64111;DHT22;50401;48.188;11.566;2023-07-08T10:10:22;28.62;44.55
64111;DHT22;50401;48.188;11.566;2023-07-08T10:12:57;28.75;44.62
64111;DHT22;50401;48.188;11.566;2023-07-08T10:15:35;28.83;44.74
64111;DHT22;50401;48.188;11.566;2023-07-08T10:18:02;28.97;43.97
64111;DHT22;50401;48.188;11.566;2023-07-08T10:20:46;28.84;43.60
64111;DHT22;50401;48.188;11.566;2023-07-08T10:23:25;28.82;44.27
64111;DHT22;50401;48.188;11.566;2023-07-08T10:26:03;28.87;43.08
64111;DHT22;50401;48.188;11.566;2023-07-08T10:37:09;28.56;44.18
64111;DHT22;50401;48.188;11.566;2023-07-08T10:45:12;28.42;44.18
64111;DHT22;50401;48.188;11.566;2023-07-08T10:56:18;28.37;43.93
64111;DHT22;50401;48.188;11.566;2023-07-08T11:06:57;28.40;42.95
64111;DHT22;50401;48.188;11.566;2023-07-08T11:09:41;28.27;43.95
64111;DHT22;50401;48.188;11.566;2023-07-08T11:12:25;28.20;44.68
64111;DHT22;50401;48.188;11.566;2023-07-08T11:14:59;28.21;44.59
64111;DHT22;50401;48.188;11.566;2023-07-08T11:17:29;28.24;45.06
64111;DHT22;50401;48.188;11.566;2023-07-08T11:20:00;28.25;44.44
64111;DHT22;50401;48.188;11.566;2023-07-08T11:22:29;28.18;44.39
64111;DHT22;50401;48.188;11.566;2023-07-08T11:24:58;28.28;43.92
64111;DHT22;50401;48.188;11.566;2023-07-08T11:27:30;28.34;44.53
64111;DHT22;50401;48.188;11.566;2023-07-08T11:30:13;28.28;43.23
64111;DHT22;50401;48.188;11.566;2023-07-08T11:32:42;28.38;43.24
64111;DHT22;50401;48.188;11.566;2023-07-08T11:35:17;28.44;43.02
64111;DHT22;50401;48.188;11.566;2023-07-08T11:37:44;28.40;41.34
64111;DHT22;50401;48.188;11.566;2023-07-08T11:40:23;28.28;41.97
64111;DHT22;50401;48.188;11.566;2023-07-08T11:42:51;28.37;40.40
64111;DHT22;50401;48.188;11.566;2023-07-08T11:47:45;28.32;40.05
64111;DHT22;50401;48.188;11.566;2023-07-08T11:50:32;28.31;39.44
64111;DHT22;50401;48.188;11.566;2023-07-08T11:53:10;28.34;39.16
64111;DHT22;50401;48.188;11.566;2023-07-08T11:55:44;28.31;36.79
64111;DHT22;50401;48.188;11.566;2023-07-08T11:58:31;28.21;38.06
64111;DHT22;50401;48.188;11.566;2023-07-08T12:01:23;28.25;38.48
64111;DHT22;50401;48.188;11.566;2023-07-08T12:03:51;28.37;39.16
64111;DHT22;50401;48.188;11.566;2023-07-08T12:08:57;28.63;39.50
64111;DHT22;50401;48.188;11.566;2023-07-08T12:11:31;28.49;36.46
64111;DHT22;50401;48.188;11.566;2023-07-08T12:13:59;28.53;37.22
64111;DHT22;50401;48.188;11.566;2023-07-08T12:16:27;28.58;37.64
64111;DHT22;50401;48.188;11.566;2023-07-08T12:18:53;28.60;38.80
64111;DHT22;50401;48.188;11.566;2023-07-08T12:21:22;28.65;39.36
64111;DHT22;50401;48.188;11.566;2023-07-08T12:23:48;28.55;39.14
64111;DHT22;50401;48.188;11.566;2023-07-08T12:26:15;28.41;39.22
64111;DHT22;50401;48.188;11.566;2023-07-08T12:28:42;27.90;39.05
64111;DHT22;50401;48.188;11.566;2023-07-08T12:31:22;28.00;39.69
64111;DHT22;50401;48.188;11.566;2023-07-08T12:33:49;28.08;39.57
64111;DHT22;50401;48.188;11.566;2023-07-08T12:36:24;28.08;39.15
64111;DHT22;50401;48.188;11.566;2023-07-08T12:38:51;28.21;39.17
64111;DHT22;50401;48.188;11.566;2023-07-08T12:43:45;28.45;37.83
64111;DHT22;50401;48.188;11.566;2023-07-08T12:46:12;28.48;37.86
64111;DHT22;50401;48.188;11.566;2023-07-08T12:48:40;28.49;37.22
64111;DHT22;50401;48.188;11.566;2023-07-08T12:51:17;28.56;37.06
64111;DHT22;50401;48.188;11.566;2023-07-08T12:53:43;28.31;36.61
64111;DHT22;50401;48.188;11.566;2023-07-08T12:56:10;28.38;36.61
64111;DHT22;50401;48.188;11.566;2023-07-08T12:58:46;28.51;36.20
64111;DHT22;50401;48.188;11.566;2023-07-08T13:01:17;28.32;35.85
64111;DHT22;50401;48.188;11.566;2023-07-08T13:03:45;28.48;36.08
64111;DHT22;50401;48.188;11.566;2023-07-08T13:06:17;28.53;35.33
64111;DHT22;50401;48.188;11.566;2023-07-08T13:08:43;28.29;34.95
64111;DHT22;50401;48.188;11.566;2023-07-08T13:11:13;28.40;35.29
64111;DHT22;50401;48.188;11.566;2023-07-08T13:13:47;28.45;36.42
64111;DHT22;50401;48.188;11.566;2023-07-08T13:16:14;28.55;35.80
64111;DHT22;50401;48.188;11.566;2023-07-08T13:18:44;28.38;35.16
64111;DHT22;50401;48.188;11.566;2023-07-08T13:21:14;28.47;35.50
64111;DHT22;50401;48.188;11.566;2023-07-08T13:23:41;28.60;35.44
64111;DHT22;50401;48.188;11.566;2023-07-08T13:26:16;28.63;35.10
64111;DHT22;50401;48.188;11.566;2023-07-08T13:28:43;28.63;35.67
64111;DHT22;50401;48.188;11.566;2023-07-08T13:31:23;28.77;36.54
64111;DHT22;50401;48.188;11.566;2023-07-08T13:33:57;28.89;36.46
64111;DHT22;50401;48.188;11.566;2023-07-08T13:36:32;28.99;37.87
64111;DHT22;50401;48.188;11.566;2023-07-08T13:38:59;28.96;36.95
64111;DHT22;50401;48.188;11.566;2023-07-08T13:41:25;28.91;35.14
64111;DHT22;50401;48.188;11.566;2023-07-08T13:43:50;28.99;36.74
64111;DHT22;50401;48.188;11.566;2023-07-08T13:46:37;28.94;35.33
64111;DHT22;50401;48.188;11.566;2023-07-08T13:49:26;28.86;34.51
64111;DHT22;50401;48.188;11.566;2023-07-08T13:52:14;28.70;35.80
64111;DHT22;50401;48.188;11.566;2023-07-08T13:54:45;28.63;34.67
64111;DHT22;50401;48.188;11.566;2023-07-08T13:57:15;28.73;34.72
64111;DHT22;50401;48.188;11.566;2023-07-08T13:59:41;28.82;35.74
64111;DHT22;50401;48.188;11.566;2023-07-08T14:02:29;28.77;34.55
64111;DHT22;50401;48.188;11.566;2023-07-08T14:04:55;28.67;34.92
64111;DHT22;50401;48.188;11.566;2023-07-08T14:07:32;28.70;35.36
64111;DHT22;50401;48.188;11.566;2023-07-08T14:09:58;28.65;34.88
64111;DHT22;50401;48.188;11.566;2023-07-08T14:12:23;28.60;35.54
64111;DHT22;50401;48.188;11.566;2023-07-08T14:14:49;28.66;36.25
64111;DHT22;50401;48.188;11.566;2023-07-08T14:17:20;28.70;36.79
64111;DHT22;50401;48.188;11.566;2023-07-08T14:19:46;28.69;36.83
64111;DHT22;50401;48.188;11.566;2023-07-08T14:24:37;28.76;36.88
64111;DHT22;50401;48.188;11.566;2023-07-08T14:27:02;28.93;36.94
64111;DHT22;50401;48.188;11.566;2023-07-08T14:29:28;28.90;36.48
64111;DHT22;50401;48.188;11.566;2023-07-08T14:31:54;28.97;36.48
64111;DHT22;50401;48.188;11.566;2023-07-08T14:34:28;28.94;36.19
64111;DHT22;50401;48.188;11.566;2023-07-08T14:36:54;28.99;35.96
64111;DHT22;50401;48.188;11.566;2023-07-08T14:39:20;28.94;35.81
64111;DHT22;50401;48.188;11.566;2023-07-08T14:41:48;29.01;36.02
64111;DHT22;50401;48.188;11.566;2023-07-08T14:44:26;29.03;34.90
64111;DHT22;50401;48.188;11.566;2023-07-08T14:46:52;29.07;34.58
64111;DHT22;50401;48.188;11.566;2023-07-08T14:49:21;29.11;34.32
64111;DHT22;50401;48.188;11.566;2023-07-08T14:51:47;29.17;35.23
64111;DHT22;50401;48.188;11.566;2023-07-08T14:54:13;29.29;35.44
64111;DHT22;50401;48.188;11.566;2023-07-08T14:56:39;29.29;34.06
64111;DHT22;50401;48.188;11.566;2023-07-08T14:59:05;29.42;34.97
64111;DHT22;50401;48.188;11.566;2023-07-08T15:01:31;29.39;34.61
64111;DHT22;50401;48.188;11.566;2023-07-08T15:03:57;29.43;34.90
64111;DHT22;50401;48.188;11.566;2023-07-08T15:06:23;29.48;35.06
64111;DHT22;50401;48.188;11.566;2023-07-08T15:08:50;29.55;34.75
64111;DHT22;50401;48.188;11.566;2023-07-08T15:11:16;29.60;34.32
64111;DHT22;50401;48.188;11.566;2023-07-08T15:13:44;29.62;33.80
64111;DHT22;50401;48.188;11.566;2023-07-08T15:16:16;29.65;33.83
64111;DHT22;50401;48.188;11.566;2023-07-08T15:18:42;29.69;33.66
64111;DHT22;50401;48.188;11.566;2023-07-08T15:21:14;29.60;33.40
64111;DHT22;50401;48.188;11.566;2023-07-08T15:23:40;29.62;33.70
64111;DHT22;50401;48.188;11.566;2023-07-08T15:26:10;29.53;33.94
64111;DHT22;50401;48.188;11.566;2023-07-08T15:28:46;29.58;34.48
64111;DHT22;50401;48.188;11.566;2023-07-08T15:31:23;29.46;32.98
64111;DHT22;50401;48.188;11.566;2023-07-08T15:33:50;29.38;31.75
64111;DHT22;50401;48.188;11.566;2023-07-08T15:36:15;29.29;32.04
64111;DHT22;50401;48.188;11.566;2023-07-08T15:38:41;29.19;32.20
64111;DHT22;50401;48.188;11.566;2023-07-08T15:41:19;29.25;32.73
64111;DHT22;50401;48.188;11.566;2023-07-08T15:43:46;29.34;34.26
64111;DHT22;50401;48.188;11.566;2023-07-08T15:46:11;29.39;34.11
64111;DHT22;50401;48.188;11.566;2023-07-08T15:48:37;29.45;34.33
64111;DHT22;50401;48.188;11.566;2023-07-08T15:51:03;29.43;33.64
64111;DHT22;50401;48.188;11.566;2023-07-08T15:53:28;29.42;33.76
64111;DHT22;50401;48.188;11.566;2023-07-08T15:55:54;29.36;34.18
64111;DHT22;50401;48.188;11.566;2023-07-08T15:58:28;29.26;34.23
64111;DHT22;50401;48.188;11.566;2023-07-08T16:00:58;29.17;33.71
64111;DHT22;50401;48.188;11.566;2023-07-08T16:03:26;29.10;32.98
64111;DHT22;50401;48.188;11.566;2023-07-08T16:05:53;29.00;34.09
64111;DHT22;50401;48.188;11.566;2023-07-08T16:08:19;28.93;34.54
64111;DHT22;50401;48.188;11.566;2023-07-08T16:10:50;28.90;34.88
64111;DHT22;50401;48.188;11.566;2023-07-08T16:13:23;28.90;35.12